Weather at İstanbul Airport

Public forecast

Using degrees Celsius for public forecast. Weather courtesy of forecast.io.

Current aviation weather report (METAR) for İstanbul Airport

Report is more than 6 hours old.

2022/11/14 15:20 (retrieved 2 years ago)

LTFM 141520Z 04015KT 9999 FEW015 BKN030 14/10 Q1024 NOSIG RMK RWY17L 03013KT RWY34L 03012KT RWY16R 03013KT RWY36 04014KT RWY18 04014KT

Aviation forecast (TAF) for İstanbul Airport

Forecast is more than 12 hours old.

2023/02/22 18:00 (retrieved 1 year ago)

TAF LTFM 221640Z 2218/2324 33005KT CAVOK BECMG 2220/2223 1600 BCFG BKN004 BECMG 2223/2302 0400 FG VV001 BECMG 2305/2308 06012KT 9999 NSW SCT012